sensor_id;sensor_type;location;lat;lon;timestamp;P1;durP1;ratioP1;P2;durP2;ratioP2
53618;SDS011;68717;53.040;18.488;2024-01-27T00:00:08;14.43;;;2.90;;
53618;SDS011;68717;53.040;18.488;2024-01-27T00:00:23;16.30;;;3.03;;
53618;SDS011;68717;53.040;18.488;2024-01-27T00:00:56;15.50;;;2.60;;
53618;SDS011;68717;53.040;18.488;2024-01-27T00:01:27;16.90;;;2.70;;
53618;SDS011;68717;53.040;18.488;2024-01-27T00:01:40;15.10;;;2.83;;
53618;SDS011;68717;53.040;18.488;2024-01-27T00:01:53;17.52;;;2.90;;
53618;SDS011;68717;53.040;18.488;2024-01-27T00:02:07;18.77;;;2.85;;
53618;SDS011;68717;53.040;18.488;2024-01-27T00:02:21;17.70;;;2.75;;
53618;SDS011;68717;53.040;18.488;2024-01-27T00:02:34;15.82;;;2.72;;
53618;SDS011;68717;53.040;18.488;2024-01-27T00:02:47;15.48;;;2.70;;
53618;SDS011;68717;53.040;18.488;2024-01-27T00:03:01;15.38;;;2.55;;
53618;SDS011;68717;53.040;18.488;2024-01-27T00:03:15;14.85;;;2.58;;
53618;SDS011;68717;53.040;18.488;2024-01-27T00:03:28;15.60;;;2.67;;
53618;SDS011;68717;53.040;18.488;2024-01-27T00:03:41;16.85;;;2.67;;
53618;SDS011;68717;53.040;18.488;2024-01-27T00:03:55;14.95;;;2.58;;
53618;SDS011;68717;53.040;18.488;2024-01-27T00:04:08;15.70;;;2.60;;
53618;SDS011;68717;53.040;18.488;2024-01-27T00:04:21;16.92;;;2.92;;
53618;SDS011;68717;53.040;18.488;2024-01-27T00:04:35;15.80;;;2.88;;
53618;SDS011;68717;53.040;18.488;2024-01-27T00:04:48;16.45;;;2.58;;
53618;SDS011;68717;53.040;18.488;2024-01-27T00:05:01;17.17;;;2.80;;
53618;SDS011;68717;53.040;18.488;2024-01-27T00:05:14;13.68;;;2.83;;
53618;SDS011;68717;53.040;18.488;2024-01-27T00:05:28;14.45;;;2.83;;
53618;SDS011;68717;53.040;18.488;2024-01-27T00:05:43;15.45;;;2.55;;
53618;SDS011;68717;53.040;18.488;2024-01-27T00:05:56;15.52;;;2.40;;
53618;SDS011;68717;53.040;18.488;2024-01-27T00:06:09;16.30;;;2.65;;
53618;SDS011;68717;53.040;18.488;2024-01-27T00:06:22;14.90;;;2.55;;
53618;SDS011;68717;53.040;18.488;2024-01-27T00:06:35;13.75;;;2.55;;
53618;SDS011;68717;53.040;18.488;2024-01-27T00:06:48;13.55;;;2.72;;
53618;SDS011;68717;53.040;18.488;2024-01-27T00:07:02;15.38;;;2.58;;
53618;SDS011;68717;53.040;18.488;2024-01-27T00:07:15;16.05;;;2.55;;
53618;SDS011;68717;53.040;18.488;2024-01-27T00:07:28;15.50;;;2.47;;
53618;SDS011;68717;53.040;18.488;2024-01-27T00:07:42;15.60;;;2.30;;
53618;SDS011;68717;53.040;18.488;2024-01-27T00:07:55;15.07;;;2.20;;
53618;SDS011;68717;53.040;18.488;2024-01-27T00:08:08;14.07;;;2.50;;
53618;SDS011;68717;53.040;18.488;2024-01-27T00:08:21;15.10;;;2.70;;
53618;SDS011;68717;53.040;18.488;2024-01-27T00:08:34;15.82;;;2.65;;
53618;SDS011;68717;53.040;18.488;2024-01-27T00:08:47;14.55;;;2.42;;
53618;SDS011;68717;53.040;18.488;2024-01-27T00:09:00;13.18;;;2.50;;
53618;SDS011;68717;53.040;18.488;2024-01-27T00:09:14;14.40;;;2.72;;
53618;SDS011;68717;53.040;18.488;2024-01-27T00:09:27;13.90;;;2.55;;
53618;SDS011;68717;53.040;18.488;2024-01-27T00:09:40;14.48;;;2.50;;
53618;SDS011;68717;53.040;18.488;2024-01-27T00:09:54;16.52;;;2.88;;
53618;SDS011;68717;53.040;18.488;2024-01-27T00:10:07;18.02;;;2.90;;
53618;SDS011;68717;53.040;18.488;2024-01-27T00:10:20;17.35;;;2.72;;
53618;SDS011;68717;53.040;18.488;2024-01-27T00:10:33;17.80;;;2.53;;
53618;SDS011;68717;53.040;18.488;2024-01-27T00:10:46;13.85;;;2.40;;
53618;SDS011;68717;53.040;18.488;2024-01-27T00:10:59;12.27;;;2.40;;
53618;SDS011;68717;53.040;18.488;2024-01-27T00:11:12;15.02;;;2.80;;
53618;SDS011;68717;53.040;18.488;2024-01-27T00:11:26;16.58;;;2.83;;
53618;SDS011;68717;53.040;18.488;2024-01-27T00:11:39;18.92;;;2.80;;
53618;SDS011;68717;53.040;18.488;2024-01-27T00:11:52;20.17;;;2.95;;
53618;SDS011;68717;53.040;18.488;2024-01-27T00:12:06;16.65;;;2.72;;
53618;SDS011;68717;53.040;18.488;2024-01-27T00:12:19;14.13;;;2.45;;
53618;SDS011;68717;53.040;18.488;2024-01-27T00:12:32;13.98;;;2.40;;
53618;SDS011;68717;53.040;18.488;2024-01-27T00:12:46;17.63;;;2.80;;
53618;SDS011;68717;53.040;18.488;2024-01-27T00:12:59;17.52;;;3.00;;
53618;SDS011;68717;53.040;18.488;2024-01-27T00:13:13;17.35;;;2.95;;
53618;SDS011;68717;53.040;18.488;2024-01-27T00:13:25;17.80;;;2.63;;
53618;SDS011;68717;53.040;18.488;2024-01-27T00:13:38;17.48;;;2.58;;
53618;SDS011;68717;53.040;18.488;2024-01-27T00:13:51;15.52;;;2.83;;
53618;SDS011;68717;53.040;18.488;2024-01-27T00:14:04;13.55;;;2.80;;
53618;SDS011;68717;53.040;18.488;2024-01-27T00:14:17;16.15;;;2.67;;
53618;SDS011;68717;53.040;18.488;2024-01-27T00:14:30;16.55;;;2.60;;
53618;SDS011;68717;53.040;18.488;2024-01-27T00:14:43;16.52;;;2.60;;
53618;SDS011;68717;53.040;18.488;2024-01-27T00:14:57;15.93;;;2.50;;
53618;SDS011;68717;53.040;18.488;2024-01-27T00:15:10;16.83;;;2.53;;
53618;SDS011;68717;53.040;18.488;2024-01-27T00:15:24;18.75;;;2.80;;
53618;SDS011;68717;53.040;18.488;2024-01-27T00:15:37;16.48;;;2.85;;
53618;SDS011;68717;53.040;18.488;2024-01-27T00:15:50;16.27;;;2.80;;
53618;SDS011;68717;53.040;18.488;2024-01-27T00:16:04;19.48;;;3.00;;
53618;SDS011;68717;53.040;18.488;2024-01-27T00:16:22;18.92;;;2.90;;
53618;SDS011;68717;53.040;18.488;2024-01-27T00:16:35;16.13;;;3.00;;
53618;SDS011;68717;53.040;18.488;2024-01-27T00:16:48;16.23;;;3.42;;
53618;SDS011;68717;53.040;18.488;2024-01-27T00:17:01;16.77;;;3.50;;
53618;SDS011;68717;53.040;18.488;2024-01-27T00:17:14;15.57;;;3.10;;
53618;SDS011;68717;53.040;18.488;2024-01-27T00:17:27;17.70;;;3.00;;
53618;SDS011;68717;53.040;18.488;2024-01-27T00:17:40;18.90;;;2.95;;
53618;SDS011;68717;53.040;18.488;2024-01-27T00:17:54;17.55;;;3.03;;
53618;SDS011;68717;53.040;18.488;2024-01-27T00:18:09;16.75;;;3.20;;
53618;SDS011;68717;53.040;18.488;2024-01-27T00:18:22;18.40;;;3.20;;
53618;SDS011;68717;53.040;18.488;2024-01-27T00:18:35;21.30;;;3.28;;
53618;SDS011;68717;53.040;18.488;2024-01-27T00:18:50;18.92;;;3.17;;
53618;SDS011;68717;53.040;18.488;2024-01-27T00:19:03;17.35;;;3.08;;
53618;SDS011;68717;53.040;18.488;2024-01-27T00:19:16;17.23;;;2.88;;
53618;SDS011;68717;53.040;18.488;2024-01-27T00:19:29;17.35;;;2.80;;
53618;SDS011;68717;53.040;18.488;2024-01-27T00:19:44;15.07;;;2.95;;
53618;SDS011;68717;53.040;18.488;2024-01-27T00:19:56;14.98;;;3.25;;
53618;SDS011;68717;53.040;18.488;2024-01-27T00:20:10;16.70;;;3.50;;
53618;SDS011;68717;53.040;18.488;2024-01-27T00:20:24;18.88;;;3.33;;
53618;SDS011;68717;53.040;18.488;2024-01-27T00:20:37;17.67;;;3.05;;
53618;SDS011;68717;53.040;18.488;2024-01-27T00:20:50;17.20;;;2.88;;
53618;SDS011;68717;53.040;18.488;2024-01-27T00:21:03;15.32;;;2.75;;
53618;SDS011;68717;53.040;18.488;2024-01-27T00:21:16;16.08;;;2.85;;
53618;SDS011;68717;53.040;18.488;2024-01-27T00:21:29;19.25;;;3.13;;
53618;SDS011;68717;53.040;18.488;2024-01-27T00:21:43;23.08;;;3.45;;
53618;SDS011;68717;53.040;18.488;2024-01-27T00:21:56;21.98;;;3.55;;
53618;SDS011;68717;53.040;18.488;2024-01-27T00:22:11;16.25;;;3.22;;
53618;SDS011;68717;53.040;18.488;2024-01-27T00:22:23;16.10;;;2.97;;
53618;SDS011;68717;53.040;18.488;2024-01-27T00:22:36;17.20;;;3.05;;
53618;SDS011;68717;53.040;18.488;2024-01-27T00:22:49;17.45;;;2.90;;
53618;SDS011;68717;53.040;18.488;2024-01-27T00:23:02;17.42;;;2.60;;
53618;SDS011;68717;53.040;18.488;2024-01-27T00:23:16;16.20;;;2.55;;
53618;SDS011;68717;53.040;18.488;2024-01-27T00:23:30;16.63;;;2.95;;
53618;SDS011;68717;53.040;18.488;2024-01-27T00:23:44;16.13;;;3.25;;
53618;SDS011;68717;53.040;18.488;2024-01-27T00:23:57;17.48;;;3.30;;
53618;SDS011;68717;53.040;18.488;2024-01-27T00:24:13;20.48;;;3.22;;
53618;SDS011;68717;53.040;18.488;2024-01-27T00:24:26;17.48;;;3.10;;
53618;SDS011;68717;53.040;18.488;2024-01-27T00:24:39;15.23;;;2.92;;
53618;SDS011;68717;53.040;18.488;2024-01-27T00:24:52;17.92;;;3.10;;
53618;SDS011;68717;53.040;18.488;2024-01-27T00:25:05;19.85;;;3.15;;
53618;SDS011;68717;53.040;18.488;2024-01-27T00:25:20;18.77;;;3.03;;
53618;SDS011;68717;53.040;18.488;2024-01-27T00:25:33;17.50;;;2.67;;
53618;SDS011;68717;53.040;18.488;2024-01-27T00:25:46;17.65;;;2.70;;
53618;SDS011;68717;53.040;18.488;2024-01-27T00:25:59;19.92;;;2.90;;
53618;SDS011;68717;53.040;18.488;2024-01-27T00:26:12;21.00;;;3.05;;
53618;SDS011;68717;53.040;18.488;2024-01-27T00:26:25;21.10;;;2.90;;
53618;SDS011;68717;53.040;18.488;2024-01-27T00:26:38;19.83;;;2.92;;
53618;SDS011;68717;53.040;18.488;2024-01-27T00:26:52;19.75;;;3.10;;
53618;SDS011;68717;53.040;18.488;2024-01-27T00:27:06;17.13;;;2.72;;
53618;SDS011;68717;53.040;18.488;2024-01-27T00:27:19;16.42;;;2.58;;
53618;SDS011;68717;53.040;18.488;2024-01-27T00:27:32;15.73;;;2.60;;
53618;SDS011;68717;53.040;18.488;2024-01-27T00:27:45;16.35;;;3.00;;
53618;SDS011;68717;53.040;18.488;2024-01-27T00:27:58;17.75;;;3.28;;
53618;SDS011;68717;53.040;18.488;2024-01-27T00:28:11;18.52;;;3.10;;
53618;SDS011;68717;53.040;18.488;2024-01-27T00:28:24;16.85;;;2.88;;
53618;SDS011;68717;53.040;18.488;2024-01-27T00:28:38;16.65;;;2.67;;
53618;SDS011;68717;53.040;18.488;2024-01-27T00:28:51;17.88;;;2.85;;
53618;SDS011;68717;53.040;18.488;2024-01-27T00:29:04;20.20;;;2.70;;
53618;SDS011;68717;53.040;18.488;2024-01-27T00:29:16;18.90;;;2.65;;
53618;SDS011;68717;53.040;18.488;2024-01-27T00:29:29;17.60;;;2.70;;
53618;SDS011;68717;53.040;18.488;2024-01-27T00:29:42;17.50;;;2.90;;
53618;SDS011;68717;53.040;18.488;2024-01-27T00:29:55;18.80;;;3.33;;
53618;SDS011;68717;53.040;18.488;2024-01-27T00:30:08;17.75;;;3.25;;
53618;SDS011;68717;53.040;18.488;2024-01-27T00:30:24;20.33;;;2.83;;
53618;SDS011;68717;53.040;18.488;2024-01-27T00:30:38;21.08;;;2.75;;
53618;SDS011;68717;53.040;18.488;2024-01-27T00:30:51;20.75;;;2.85;;
53618;SDS011;68717;53.040;18.488;2024-01-27T00:31:04;21.95;;;3.00;;
53618;SDS011;68717;53.040;18.488;2024-01-27T00:31:17;18.30;;;2.92;;
53618;SDS011;68717;53.040;18.488;2024-01-27T00:31:30;15.90;;;2.70;;
53618;SDS011;68717;53.040;18.488;2024-01-27T00:31:43;19.55;;;3.17;;
53618;SDS011;68717;53.040;18.488;2024-01-27T00:31:56;21.23;;;3.35;;
53618;SDS011;68717;53.040;18.488;2024-01-27T00:32:09;18.80;;;3.08;;
53618;SDS011;68717;53.040;18.488;2024-01-27T00:32:22;17.66;;;3.14;;
53618;SDS011;68717;53.040;18.488;2024-01-27T00:32:36;17.17;;;3.10;;
53618;SDS011;68717;53.040;18.488;2024-01-27T00:32:49;16.15;;;3.00;;
53618;SDS011;68717;53.040;18.488;2024-01-27T00:33:02;14.60;;;3.10;;
53618;SDS011;68717;53.040;18.488;2024-01-27T00:33:17;15.02;;;3.05;;
53618;SDS011;68717;53.040;18.488;2024-01-27T00:33:30;17.52;;;3.25;;
53618;SDS011;68717;53.040;18.488;2024-01-27T00:33:43;17.38;;;3.10;;
53618;SDS011;68717;53.040;18.488;2024-01-27T00:33:57;14.77;;;2.90;;
53618;SDS011;68717;53.040;18.488;2024-01-27T00:34:10;16.52;;;3.08;;
53618;SDS011;68717;53.040;18.488;2024-01-27T00:34:23;16.95;;;2.85;;
53618;SDS011;68717;53.040;18.488;2024-01-27T00:34:37;16.08;;;2.70;;
53618;SDS011;68717;53.040;18.488;2024-01-27T00:34:50;16.83;;;2.88;;
53618;SDS011;68717;53.040;18.488;2024-01-27T00:35:03;14.63;;;2.72;;
53618;SDS011;68717;53.040;18.488;2024-01-27T00:35:17;15.48;;;2.88;;
53618;SDS011;68717;53.040;18.488;2024-01-27T00:35:30;17.08;;;3.03;;
53618;SDS011;68717;53.040;18.488;2024-01-27T00:35:43;18.55;;;3.10;;
53618;SDS011;68717;53.040;18.488;2024-01-27T00:35:56;17.55;;;3.15;;
53618;SDS011;68717;53.040;18.488;2024-01-27T00:36:09;15.88;;;3.03;;
53618;SDS011;68717;53.040;18.488;2024-01-27T00:36:22;16.05;;;3.10;;
53618;SDS011;68717;53.040;18.488;2024-01-27T00:36:36;14.50;;;3.05;;
53618;SDS011;68717;53.040;18.488;2024-01-27T00:36:49;17.42;;;3.22;;
53618;SDS011;68717;53.040;18.488;2024-01-27T00:37:02;18.77;;;3.15;;
53618;SDS011;68717;53.040;18.488;2024-01-27T00:37:15;19.98;;;3.30;;
53618;SDS011;68717;53.040;18.488;2024-01-27T00:37:28;18.83;;;3.17;;
53618;SDS011;68717;53.040;18.488;2024-01-27T00:37:41;16.45;;;2.88;;
53618;SDS011;68717;53.040;18.488;2024-01-27T00:37:54;13.43;;;2.80;;
53618;SDS011;68717;53.040;18.488;2024-01-27T00:38:07;15.25;;;2.90;;
53618;SDS011;68717;53.040;18.488;2024-01-27T00:38:21;19.05;;;3.20;;
53618;SDS011;68717;53.040;18.488;2024-01-27T00:38:34;19.52;;;3.72;;
53618;SDS011;68717;53.040;18.488;2024-01-27T00:38:47;17.73;;;3.80;;
53618;SDS011;68717;53.040;18.488;2024-01-27T00:39:00;17.90;;;3.65;;
53618;SDS011;68717;53.040;18.488;2024-01-27T00:39:13;17.40;;;3.45;;
53618;SDS011;68717;53.040;18.488;2024-01-27T00:39:26;15.75;;;2.72;;
53618;SDS011;68717;53.040;18.488;2024-01-27T00:39:39;16.15;;;2.40;;
53618;SDS011;68717;53.040;18.488;2024-01-27T00:39:52;14.90;;;2.50;;
53618;SDS011;68717;53.040;18.488;2024-01-27T00:40:07;13.48;;;2.38;;
53618;SDS011;68717;53.040;18.488;2024-01-27T00:40:21;14.48;;;2.40;;
53618;SDS011;68717;53.040;18.488;2024-01-27T00:40:35;17.17;;;2.95;;
53618;SDS011;68717;53.040;18.488;2024-01-27T00:40:48;19.67;;;3.30;;
53618;SDS011;68717;53.040;18.488;2024-01-27T00:41:01;19.38;;;3.22;;
53618;SDS011;68717;53.040;18.488;2024-01-27T00:41:17;19.42;;;3.42;;
53618;SDS011;68717;53.040;18.488;2024-01-27T00:41:30;20.90;;;3.92;;
53618;SDS011;68717;53.040;18.488;2024-01-27T00:41:44;22.40;;;4.43;;
53618;SDS011;68717;53.040;18.488;2024-01-27T00:41:57;22.17;;;4.95;;
53618;SDS011;68717;53.040;18.488;2024-01-27T00:42:11;23.40;;;5.00;;
53618;SDS011;68717;53.040;18.488;2024-01-27T00:42:25;22.52;;;4.88;;
53618;SDS011;68717;53.040;18.488;2024-01-27T00:42:38;21.33;;;4.70;;
53618;SDS011;68717;53.040;18.488;2024-01-27T00:42:51;19.63;;;4.45;;
53618;SDS011;68717;53.040;18.488;2024-01-27T00:43:04;17.92;;;4.03;;
53618;SDS011;68717;53.040;18.488;2024-01-27T00:43:17;18.15;;;4.00;;
53618;SDS011;68717;53.040;18.488;2024-01-27T00:43:30;19.30;;;3.80;;
53618;SDS011;68717;53.040;18.488;2024-01-27T00:43:43;17.73;;;3.50;;
53618;SDS011;68717;53.040;18.488;2024-01-27T00:43:57;17.75;;;3.47;;
53618;SDS011;68717;53.040;18.488;2024-01-27T00:44:10;17.52;;;3.55;;
53618;SDS011;68717;53.040;18.488;2024-01-27T00:44:23;15.55;;;3.00;;
53618;SDS011;68717;53.040;18.488;2024-01-27T00:44:36;15.15;;;2.40;;
53618;SDS011;68717;53.040;18.488;2024-01-27T00:44:49;15.50;;;2.22;;
53618;SDS011;68717;53.040;18.488;2024-01-27T00:45:03;15.98;;;2.40;;
53618;SDS011;68717;53.040;18.488;2024-01-27T00:45:17;14.70;;;2.55;;
53618;SDS011;68717;53.040;18.488;2024-01-27T00:45:30;12.00;;;2.33;;
53618;SDS011;68717;53.040;18.488;2024-01-27T00:45:44;12.60;;;2.42;;
53618;SDS011;68717;53.040;18.488;2024-01-27T00:45:57;15.73;;;2.70;;
53618;SDS011;68717;53.040;18.488;2024-01-27T00:46:10;16.80;;;3.03;;
53618;SDS011;68717;53.040;18.488;2024-01-27T00:46:23;14.82;;;2.80;;
53618;SDS011;68717;53.040;18.488;2024-01-27T00:46:36;17.10;;;3.15;;
53618;SDS011;68717;53.040;18.488;2024-01-27T00:46:49;17.98;;;3.10;;
53618;SDS011;68717;53.040;18.488;2024-01-27T00:47:02;16.83;;;2.78;;
53618;SDS011;68717;53.040;18.488;2024-01-27T00:47:15;15.95;;;3.00;;
53618;SDS011;68717;53.040;18.488;2024-01-27T00:47:28;17.05;;;3.40;;
53618;SDS011;68717;53.040;18.488;2024-01-27T00:47:42;16.42;;;3.75;;
53618;SDS011;68717;53.040;18.488;2024-01-27T00:47:56;17.00;;;3.65;;
53618;SDS011;68717;53.040;18.488;2024-01-27T00:48:10;20.98;;;3.95;;
53618;SDS011;68717;53.040;18.488;2024-01-27T00:48:24;20.92;;;4.00;;
53618;SDS011;68717;53.040;18.488;2024-01-27T00:48:37;19.63;;;3.35;;
53618;SDS011;68717;53.040;18.488;2024-01-27T00:48:51;17.77;;;2.95;;
53618;SDS011;68717;53.040;18.488;2024-01-27T00:49:04;17.52;;;2.85;;
53618;SDS011;68717;53.040;18.488;2024-01-27T00:49:17;17.05;;;2.80;;
53618;SDS011;68717;53.040;18.488;2024-01-27T00:49:30;14.50;;;2.78;;
53618;SDS011;68717;53.040;18.488;2024-01-27T00:49:44;15.40;;;2.90;;
53618;SDS011;68717;53.040;18.488;2024-01-27T00:49:58;17.98;;;2.97;;
53618;SDS011;68717;53.040;18.488;2024-01-27T00:50:11;21.13;;;2.88;;
53618;SDS011;68717;53.040;18.488;2024-01-27T00:50:24;21.70;;;2.83;;
53618;SDS011;68717;53.040;18.488;2024-01-27T00:50:37;21.73;;;3.28;;
53618;SDS011;68717;53.040;18.488;2024-01-27T00:50:50;19.23;;;3.33;;
53618;SDS011;68717;53.040;18.488;2024-01-27T00:51:03;19.25;;;3.28;;
53618;SDS011;68717;53.040;18.488;2024-01-27T00:51:16;18.50;;;3.50;;
53618;SDS011;68717;53.040;18.488;2024-01-27T00:51:30;18.95;;;3.72;;
53618;SDS011;68717;53.040;18.488;2024-01-27T00:51:43;21.20;;;3.65;;
53618;SDS011;68717;53.040;18.488;2024-01-27T00:51:56;20.33;;;3.35;;
53618;SDS011;68717;53.040;18.488;2024-01-27T00:52:09;18.17;;;3.45;;
53618;SDS011;68717;53.040;18.488;2024-01-27T00:52:23;18.80;;;3.42;;
53618;SDS011;68717;53.040;18.488;2024-01-27T00:52:36;19.65;;;3.38;;
53618;SDS011;68717;53.040;18.488;2024-01-27T00:52:49;16.63;;;2.90;;
53618;SDS011;68717;53.040;18.488;2024-01-27T00:53:02;15.43;;;2.90;;
53618;SDS011;68717;53.040;18.488;2024-01-27T00:53:15;17.58;;;3.03;;
53618;SDS011;68717;53.040;18.488;2024-01-27T00:53:29;17.55;;;3.15;;
53618;SDS011;68717;53.040;18.488;2024-01-27T00:53:42;18.55;;;3.08;;
53618;SDS011;68717;53.040;18.488;2024-01-27T00:53:55;21.95;;;3.22;;
53618;SDS011;68717;53.040;18.488;2024-01-27T00:54:08;18.55;;;3.03;;
53618;SDS011;68717;53.040;18.488;2024-01-27T00:54:20;13.38;;;2.72;;
53618;SDS011;68717;53.040;18.488;2024-01-27T00:54:34;13.80;;;2.90;;
53618;SDS011;68717;53.040;18.488;2024-01-27T00:54:47;15.55;;;2.97;;
53618;SDS011;68717;53.040;18.488;2024-01-27T00:55:00;19.30;;;2.90;;
53618;SDS011;68717;53.040;18.488;2024-01-27T00:55:14;18.73;;;2.95;;
53618;SDS011;68717;53.040;18.488;2024-01-27T00:55:27;16.27;;;3.08;;
53618;SDS011;68717;53.040;18.488;2024-01-27T00:55:40;16.75;;;3.00;;
53618;SDS011;68717;53.040;18.488;2024-01-27T00:55:53;16.00;;;2.83;;
53618;SDS011;68717;53.040;18.488;2024-01-27T00:56:06;14.90;;;2.90;;
53618;SDS011;68717;53.040;18.488;2024-01-27T00:56:19;13.90;;;2.88;;
53618;SDS011;68717;53.040;18.488;2024-01-27T00:56:32;15.40;;;3.00;;
53618;SDS011;68717;53.040;18.488;2024-01-27T00:56:45;17.48;;;3.30;;
53618;SDS011;68717;53.040;18.488;2024-01-27T00:56:59;18.88;;;4.03;;
53618;SDS011;68717;53.040;18.488;2024-01-27T00:57:12;20.27;;;3.95;;
53618;SDS011;68717;53.040;18.488;2024-01-27T00:57:25;20.15;;;3.65;;
53618;SDS011;68717;53.040;18.488;2024-01-27T00:57:38;16.85;;;2.92;;
53618;SDS011;68717;53.040;18.488;2024-01-27T00:57:51;15.85;;;2.53;;
53618;SDS011;68717;53.040;18.488;2024-01-27T00:58:06;14.13;;;2.50;;
53618;SDS011;68717;53.040;18.488;2024-01-27T00:58:20;15.85;;;2.88;;
53618;SDS011;68717;53.040;18.488;2024-01-27T00:58:32;17.85;;;3.03;;
53618;SDS011;68717;53.040;18.488;2024-01-27T00:58:46;16.48;;;2.83;;
53618;SDS011;68717;53.040;18.488;2024-01-27T00:59:01;17.95;;;2.90;;
53618;SDS011;68717;53.040;18.488;2024-01-27T00:59:13;18.75;;;2.80;;
53618;SDS011;68717;53.040;18.488;2024-01-27T00:59:27;17.80;;;2.75;;
53618;SDS011;68717;53.040;18.488;2024-01-27T00:59:43;15.55;;;2.45;;
53618;SDS011;68717;53.040;18.488;2024-01-27T00:59:56;15.05;;;2.50;;
53618;SDS011;68717;53.040;18.488;2024-01-27T01:00:09;18.92;;;2.53;;
53618;SDS011;68717;53.040;18.488;2024-01-27T01:00:24;18.75;;;2.50;;
53618;SDS011;68717;53.040;18.488;2024-01-27T01:00:37;15.55;;;2.50;;
53618;SDS011;68717;53.040;18.488;2024-01-27T01:00:51;16.48;;;2.63;;
53618;SDS011;68717;53.040;18.488;2024-01-27T01:01:04;18.60;;;2.75;;
53618;SDS011;68717;53.040;18.488;2024-01-27T01:01:20;18.75;;;2.63;;
53618;SDS011;68717;53.040;18.488;2024-01-27T01:01:33;14.95;;;2.42;;
53618;SDS011;68717;53.040;18.488;2024-01-27T01:01:46;14.48;;;2.38;;
53618;SDS011;68717;53.040;18.488;2024-01-27T01:01:59;15.75;;;2.30;;
53618;SDS011;68717;53.040;18.488;2024-01-27T01:02:12;14.68;;;2.17;;
53618;SDS011;68717;53.040;18.488;2024-01-27T01:02:25;14.68;;;2.30;;
53618;SDS011;68717;53.040;18.488;2024-01-27T01:02:38;15.68;;;2.45;;
53618;SDS011;68717;53.040;18.488;2024-01-27T01:02:53;15.82;;;2.53;;
53618;SDS011;68717;53.040;18.488;2024-01-27T01:03:06;18.05;;;2.88;;
53618;SDS011;68717;53.040;18.488;2024-01-27T01:03:19;20.42;;;2.70;;
53618;SDS011;68717;53.040;18.488;2024-01-27T01:03:34;19.48;;;2.50;;
53618;SDS011;68717;53.040;18.488;2024-01-27T01:03:47;19.40;;;2.78;;
53618;SDS011;68717;53.040;18.488;2024-01-27T01:04:00;17.05;;;2.47;;
53618;SDS011;68717;53.040;18.488;2024-01-27T01:04:13;16.85;;;2.28;;
53618;SDS011;68717;53.040;18.488;2024-01-27T01:04:26;18.05;;;2.53;;
53618;SDS011;68717;53.040;18.488;2024-01-27T01:04:40;17.10;;;2.80;;
53618;SDS011;68717;53.040;18.488;2024-01-27T01:04:54;17.17;;;2.92;;
53618;SDS011;68717;53.040;18.488;2024-01-27T01:05:07;16.52;;;2.80;;
53618;SDS011;68717;53.040;18.488;2024-01-27T01:05:20;15.98;;;2.53;;
53618;SDS011;68717;53.040;18.488;2024-01-27T01:05:33;16.42;;;2.70;;
53618;SDS011;68717;53.040;18.488;2024-01-27T01:05:46;16.75;;;2.70;;
53618;SDS011;68717;53.040;18.488;2024-01-27T01:05:59;15.60;;;2.50;;
53618;SDS011;68717;53.040;18.488;2024-01-27T01:06:12;15.75;;;2.70;;
53618;SDS011;68717;53.040;18.488;2024-01-27T01:06:26;14.82;;;2.75;;
53618;SDS011;68717;53.040;18.488;2024-01-27T01:06:40;14.02;;;2.65;;
53618;SDS011;68717;53.040;18.488;2024-01-27T01:06:53;16.02;;;2.70;;
53618;SDS011;68717;53.040;18.488;2024-01-27T01:07:06;20.02;;;3.10;;
53618;SDS011;68717;53.040;18.488;2024-01-27T01:07:19;18.33;;;3.10;;
53618;SDS011;68717;53.040;18.488;2024-01-27T01:07:32;15.15;;;2.60;;
53618;SDS011;68717;53.040;18.488;2024-01-27T01:07:45;15.80;;;2.40;;
53618;SDS011;68717;53.040;18.488;2024-01-27T01:07:58;18.15;;;2.50;;
53618;SDS011;68717;53.040;18.488;2024-01-27T01:08:11;18.52;;;2.85;;
53618;SDS011;68717;53.040;18.488;2024-01-27T01:08:24;19.10;;;2.90;;
53618;SDS011;68717;53.040;18.488;2024-01-27T01:08:37;17.05;;;2.55;;
53618;SDS011;68717;53.040;18.488;2024-01-27T01:08:50;14.38;;;2.40;;
53618;SDS011;68717;53.040;18.488;2024-01-27T01:09:04;15.02;;;2.60;;
53618;SDS011;68717;53.040;18.488;2024-01-27T01:09:17;18.80;;;2.70;;
53618;SDS011;68717;53.040;18.488;2024-01-27T01:09:30;20.77;;;2.90;;
53618;SDS011;68717;53.040;18.488;2024-01-27T01:09:43;20.15;;;3.20;;
53618;SDS011;68717;53.040;18.488;2024-01-27T01:09:55;17.65;;;2.88;;
53618;SDS011;68717;53.040;18.488;2024-01-27T01:10:08;17.25;;;2.42;;
53618;SDS011;68717;53.040;18.488;2024-01-27T01:10:22;17.85;;;2.50;;
53618;SDS011;68717;53.040;18.488;2024-01-27T01:10:35;15.73;;;2.70;;
53618;SDS011;68717;53.040;18.488;2024-01-27T01:10:47;15.70;;;2.80;;
53618;SDS011;68717;53.040;18.488;2024-01-27T01:11:00;17.65;;;2.85;;
53618;SDS011;68717;53.040;18.488;2024-01-27T01:11:14;19.73;;;2.90;;
53618;SDS011;68717;53.040;18.488;2024-01-27T01:11:28;18.58;;;2.75;;
53618;SDS011;68717;53.040;18.488;2024-01-27T01:11:41;14.60;;;2.30;;
53618;SDS011;68717;53.040;18.488;2024-01-27T01:11:54;16.35;;;2.25;;
53618;SDS011;68717;53.040;18.488;2024-01-27T01:12:07;17.55;;;2.53;;
53618;SDS011;68717;53.040;18.488;2024-01-27T01:12:22;17.05;;;2.65;;
53618;SDS011;68717;53.040;18.488;2024-01-27T01:12:35;17.88;;;2.50;;
53618;SDS011;68717;53.040;18.488;2024-01-27T01:12:48;17.92;;;2.75;;
53618;SDS011;68717;53.040;18.488;2024-01-27T01:13:01;18.75;;;2.83;;
53618;SDS011;68717;53.040;18.488;2024-01-27T01:13:14;20.17;;;2.67;;
53618;SDS011;68717;53.040;18.488;2024-01-27T01:13:27;20.30;;;2.78;;
53618;SDS011;68717;53.040;18.488;2024-01-27T01:13:41;20.60;;;2.70;;
53618;SDS011;68717;53.040;18.488;2024-01-27T01:13:54;19.35;;;2.83;;
53618;SDS011;68717;53.040;18.488;2024-01-27T01:14:07;15.30;;;2.60;;
53618;SDS011;68717;53.040;18.488;2024-01-27T01:14:20;15.02;;;2.50;;
53618;SDS011;68717;53.040;18.488;2024-01-27T01:14:33;15.95;;;2.67;;
53618;SDS011;68717;53.040;18.488;2024-01-27T01:14:46;15.43;;;2.63;;
53618;SDS011;68717;53.040;18.488;2024-01-27T01:14:59;16.90;;;2.53;;
53618;SDS011;68717;53.040;18.488;2024-01-27T01:15:13;16.08;;;2.58;;
53618;SDS011;68717;53.040;18.488;2024-01-27T01:15:27;13.85;;;2.67;;
53618;SDS011;68717;53.040;18.488;2024-01-27T01:15:40;13.70;;;2.67;;
53618;SDS011;68717;53.040;18.488;2024-01-27T01:15:53;13.88;;;2.58;;
53618;SDS011;68717;53.040;18.488;2024-01-27T01:16:09;13.38;;;2.35;;
53618;SDS011;68717;53.040;18.488;2024-01-27T01:16:22;13.25;;;2.28;;
53618;SDS011;68717;53.040;18.488;2024-01-27T01:16:35;14.60;;;2.35;;
53618;SDS011;68717;53.040;18.488;2024-01-27T01:16:48;13.38;;;2.20;;
53618;SDS011;68717;53.040;18.488;2024-01-27T01:17:02;12.25;;;2.00;;
53618;SDS011;68717;53.040;18.488;2024-01-27T01:17:17;15.00;;;2.17;;
53618;SDS011;68717;53.040;18.488;2024-01-27T01:17:30;14.40;;;2.38;;
53618;SDS011;68717;53.040;18.488;2024-01-27T01:17:43;12.27;;;2.13;;
53618;SDS011;68717;53.040;18.488;2024-01-27T01:17:56;11.93;;;2.28;;
53618;SDS011;68717;53.040;18.488;2024-01-27T01:18:09;13.40;;;2.45;;
53618;SDS011;68717;53.040;18.488;2024-01-27T01:18:22;14.43;;;2.55;;
53618;SDS011;68717;53.040;18.488;2024-01-27T01:18:37;17.00;;;2.67;;